Time;durP1;ratioP1;P1;durP2;ratioP2;P2;SDS_P1;SDS_P2;PMS_P1;PMS_P2;Temp;Humidity;BMP_temperature;BMP_pressure;BME280_temperature;BME280_humidity;BME280_pressure;Samples;Min_cycle;Max_cycle;Signal;HPM_P1;HPM_P2
2023/09/18 00:04:48;;;;;;;8.10;5.30;;;;;;;18.29;73.87;99208.01;232761;214;258330;-57
2023/09/18 00:09:52;;;;;;;6.80;5.40;;;;;;;18.23;73.94;99202.06;232738;215;140525;-58
2023/09/18 00:14:57;;;;;;;9.60;5.40;;;;;;;18.15;74.25;99206.55;232797;215;137452;-59
2023/09/18 00:20:06;;;;;;;7.20;4.50;;;;;;;18.10;74.47;99201.25;233014;215;144721;-56
2023/09/18 00:25:11;;;;;;;13.20;4.90;;;;;;;18.06;74.37;99195.75;232923;215;141688;-56
2023/09/18 00:30:15;;;;;;;7.20;5.40;;;;;;;18.05;74.60;99195.42;232941;216;138096;-58
2023/09/18 00:35:20;;;;;;;9.40;5.60;;;;;;;18.07;74.38;99195.11;232946;216;146452;-59
2023/09/18 00:40:26;;;;;;;7.50;5.30;;;;;;;18.05;74.32;99196.52;232906;215;138812;-60
2023/09/18 00:45:32;;;;;;;7.40;5.50;;;;;;;17.98;74.25;99189.99;232878;215;137592;-59
2023/09/18 00:50:38;;;;;;;8.20;5.10;;;;;;;17.90;74.43;99190.33;233034;216;145647;-58
2023/09/18 00:55:44;;;;;;;6.80;4.40;;;;;;;17.88;74.38;99189.84;233019;215;138821;-59
2023/09/18 01:00:50;;;;;;;7.10;5.80;;;;;;;17.87;74.41;99195.30;233030;215;137640;-55
2023/09/18 01:05:55;;;;;;;6.70;5.10;;;;;;;17.86;74.32;99191.95;232928;216;147474;-61
2023/09/18 01:11:03;;;;;;;9.10;5.20;;;;;;;17.83;74.25;99189.58;232754;215;138829;-57
2023/09/18 01:16:31;;;;;;;7.70;5.40;;;;;;;17.79;74.41;99192.02;232938;215;140191;-58
2023/09/18 01:21:37;;;;;;;7.60;5.80;;;;;;;17.72;74.41;99184.73;232859;215;145761;-56
2023/09/18 01:26:41;;;;;;;8.60;4.60;;;;;;;17.65;74.52;99186.73;232951;215;142904;-58
2023/09/18 01:31:48;;;;;;;6.50;4.80;;;;;;;17.61;74.67;99188.19;232984;215;139151;-57
2023/09/18 01:36:53;;;;;;;7.00;5.10;;;;;;;17.63;74.62;99185.70;232839;215;147466;-57
2023/09/18 01:42:05;;;;;;;6.80;5.30;;;;;;;17.62;74.48;99191.19;232819;215;139864;-59
2023/09/18 01:47:17;;;;;;;8.00;4.90;;;;;;;17.58;74.39;99191.18;232828;215;136677;-59
2023/09/18 01:52:23;;;;;;;7.50;5.00;;;;;;;17.53;74.30;99193.40;232928;215;146220;-59
2023/09/18 01:57:29;;;;;;;;;;;;;;;17.45;74.42;99199.86;232951;215;139775;-57
2023/09/18 02:02:36;;;;;;;7.20;5.00;;;;;;;17.39;74.19;99191.61;233071;215;131000;-58
2023/09/18 02:07:51;;;;;;;8.80;5.10;;;;;;;17.37;74.32;99191.58;233079;216;147915;-57
2023/09/18 02:12:57;;;;;;;8.90;4.60;;;;;;;17.36;74.30;99191.38;232924;216;140496;-57
2023/09/18 02:18:04;;;;;;;7.50;5.40;;;;;;;17.35;74.52;99194.50;232816;215;137824;-56
2023/09/18 04:45:31;;;;;;;7.60;6.50;;;;;;;17.79;75.24;99120.07;231449;224;698184;-60
2023/09/18 04:50:35;;;;;;;11.60;6.10;;;;;;;17.77;75.10;99127.97;232872;217;138208;-61
2023/09/18 04:55:41;;;;;;;11.20;6.60;;;;;;;17.73;74.83;99128.81;232832;216;145778;-57
2023/09/18 05:00:46;;;;;;;9.60;6.50;;;;;;;17.69;74.93;99127.89;232905;215;140578;-61
2023/09/18 05:05:51;;;;;;;18.00;6.40;;;;;;;17.65;75.19;99130.23;232834;216;137906;-61
2023/09/18 05:10:59;;;;;;;11.00;5.60;;;;;;;17.69;75.29;99123.27;232899;216;144312;-58
2023/09/18 05:16:04;;;;;;;15.00;6.60;;;;;;;17.69;75.33;99116.64;232888;217;139143;-57
2023/09/18 05:21:10;;;;;;;14.40;7.50;;;;;;;17.69;75.59;99108.39;233042;216;137531;-59
2023/09/18 05:28:21;;;;;;;10.00;7.50;;;;;;;17.71;75.80;99106.58;231389;224;723847;-58
2023/09/18 05:33:26;;;;;;;10.40;7.30;;;;;;;17.69;76.12;99104.23;233085;216;137715;-60
2023/09/18 05:38:31;;;;;;;9.70;6.50;;;;;;;17.69;76.42;99104.63;232933;215;143740;-59
2023/09/18 05:43:36;;;;;;;12.80;6.70;;;;;;;17.71;76.56;99099.33;232927;216;138655;-57
2023/09/18 05:48:40;;;;;;;14.40;7.60;;;;;;;17.80;76.87;99093.94;232956;216;140632;-61
2023/09/18 05:53:45;;;;;;;15.00;7.90;;;;;;;17.92;76.80;99089.44;232927;216;144996;-59
2023/09/18 05:58:48;;;;;;;12.10;7.30;;;;;;;18.02;76.77;99092.27;232806;214;138742;-60
2023/09/18 06:03:53;;;;;;;18.60;9.20;;;;;;;18.12;76.58;99088.52;232969;215;136882;-60
2023/09/18 06:08:59;;;;;;;16.60;9.10;;;;;;;18.19;76.58;99087.46;232904;216;144031;-58
2023/09/18 06:14:03;;;;;;;15.80;8.80;;;;;;;18.28;76.50;99091.69;232821;215;138924;-57
2023/09/18 06:19:07;;;;;;;23.30;10.70;;;;;;;18.42;76.28;99085.33;232882;216;137568;-59
2023/09/18 06:24:10;;;;;;;20.00;10.90;;;;;;;18.60;76.17;99082.53;232873;216;147971;-56
2023/09/18 06:29:14;;;;;;;29.20;12.20;;;;;;;18.76;75.88;99070.30;232828;215;140372;-57
2023/09/18 06:34:19;;;;;;;26.30;10.70;;;;;;;18.89;75.55;99064.95;232872;216;138079;-59
2023/09/18 06:39:26;;;;;;;27.20;10.30;;;;;;;19.00;75.59;99064.94;233060;216;146957;-57
2023/09/18 06:44:31;;;;;;;24.80;9.70;;;;;;;19.13;75.46;99059.39;232854;216;139423;-58
2023/09/18 06:49:36;;;;;;;35.50;10.90;;;;;;;19.31;75.16;99061.55;232899;215;138762;-58
2023/09/18 06:54:40;;;;;;;24.10;11.10;;;;;;;19.54;74.61;99059.83;232894;216;147357;-59
2023/09/18 06:59:45;;;;;;;42.60;16.40;;;;;;;19.69;74.23;99056.45;232817;215;140139;-58
2023/09/18 07:04:48;;;;;;;32.70;10.50;;;;;;;19.80;74.12;99056.58;232947;216;136642;-59
2023/09/18 07:09:54;;;;;;;31.50;10.30;;;;;;;19.89;73.79;99051.11;232936;216;145455;-60
2023/09/18 07:15:06;;;;;;;35.30;9.40;;;;;;;19.97;73.82;99051.41;234494;215;141281;-60
2023/09/18 07:20:13;;;;;;;41.90;11.00;;;;;;;20.10;73.77;99052.11;234403;215;139987;-61
2023/09/18 07:25:17;;;;;;;45.60;12.50;;;;;;;20.29;73.55;99050.67;234466;215;145659;-61
2023/09/18 07:30:21;;;;;;;51.10;13.60;;;;;;;20.52;73.00;99047.84;234453;216;141299;-63
2023/09/18 07:35:25;;;;;;;42.10;11.90;;;;;;;20.69;72.60;99042.96;234501;216;138029;-63
2023/09/18 07:40:29;;;;;;;61.10;13.00;;;;;;;20.88;72.38;99041.36;234452;215;146727;-64
2023/09/18 07:45:34;;;;;;;35.60;10.50;;;;;;;21.06;71.83;99035.73;234593;216;139128;-63
2023/09/18 07:50:37;;;;;;;33.60;8.90;;;;;;;21.21;71.46;99032.86;234594;216;136725;-64
2023/09/18 07:55:41;;;;;;;32.20;10.70;;;;;;;21.36;70.95;99033.61;234561;216;146123;-63
2023/09/18 08:00:44;;;;;;;35.30;16.30;;;;;;;21.55;70.30;99034.30;234594;215;138065;-63
2023/09/18 08:10:27;;;;;;;22.10;10.00;;;;;;;21.94;69.00;99024.98;231383;224;725029;-61
2023/09/18 08:15:32;;;;;;;26.90;11.00;;;;;;;22.09;68.28;99026.05;232658;218;136790;-58
2023/09/18 08:20:45;;;;;;;21.90;10.80;;;;;;;22.21;67.56;99020.02;232977;216;143917;-57
2023/09/18 08:25:55;;;;;;;25.50;10.50;;;;;;;22.31;66.89;99016.77;232648;214;138867;-58
2023/09/18 09:08:48;;;;;;;8.80;7.80;;;;;;;23.49;61.34;98972.15;231377;224;723458;-58
2023/09/18 09:14:15;;;;;;;10.30;8.60;;;;;;;23.69;61.61;98973.09;232935;216;136273;-58
2023/09/18 09:19:30;;;;;;;9.00;8.00;;;;;;;23.86;60.85;98974.50;232907;216;144732;-59
2023/09/18 09:24:40;;;;;;;13.80;8.60;;;;;;;24.00;60.52;98968.78;232827;216;139570;-58
2023/09/18 09:29:59;;;;;;;9.90;8.40;;;;;;;24.10;59.90;98957.38;232940;216;137483;-60
2023/09/18 09:35:07;;;;;;;11.30;8.40;;;;;;;24.19;59.84;98951.89;232597;214;145809;-60
2023/09/18 09:40:14;;;;;;;12.30;8.70;;;;;;;24.33;59.92;98948.83;232745;213;139667;-59
2023/09/18 09:45:18;;;;;;;17.30;15.50;;;;;;;24.45;59.24;98944.52;232626;213;137115;-60
2023/09/18 09:50:25;;;;;;;14.60;10.10;;;;;;;24.58;58.86;98940.11;232680;213;144499;-62
2023/09/18 09:55:34;;;;;;;16.60;8.40;;;;;;;24.72;58.56;98936.15;232640;212;138828;-63
2023/09/18 10:00:46;;;;;;;16.00;9.00;;;;;;;24.90;57.96;98940.46;232593;213;139358;-62
2023/09/18 10:05:53;;;;;;;10.30;7.60;;;;;;;25.03;56.82;98938.75;232546;213;145877;-60
2023/09/18 10:11:11;;;;;;;10.40;7.70;;;;;;;25.22;56.29;98933.27;232577;214;138881;-62
2023/09/18 10:16:24;;;;;;;11.10;7.70;;;;;;;25.39;55.80;98925.07;232916;214;137765;-64
2023/09/18 10:21:41;;;;;;;9.70;7.60;;;;;;;25.58;55.14;98913.95;232723;213;145616;-63
2023/09/18 10:27:00;;;;;;;8.90;8.00;;;;;;;25.77;54.54;98898.59;232646;214;139012;-63
2023/09/18 10:32:09;;;;;;;10.90;7.30;;;;;;;25.90;53.42;98893.55;232708;213;137684;-58
2023/09/18 10:37:15;;;;;;;10.40;8.00;;;;;;;26.10;53.35;98880.23;232766;213;147243;-62
2023/09/18 10:42:20;;;;;;;11.50;7.80;;;;;;;26.28;52.60;98878.05;232684;214;138923;-60
2023/09/18 10:47:26;;;;;;;13.40;8.50;;;;;;;26.38;51.27;98880.01;232755;213;137618;-61
2023/09/18 10:52:32;;;;;;;10.10;7.90;;;;;;;26.45;51.38;98880.39;232810;214;147190;-61
2023/09/18 10:57:49;;;;;;;9.50;8.50;;;;;;;26.40;51.26;98877.08;232710;214;138731;-62
2023/09/18 11:03:13;;;;;;;9.70;8.60;;;;;;;26.46;52.06;98869.35;232752;214;137218;-62
2023/09/18 11:08:45;;;;;;;16.00;8.70;;;;;;;26.51;51.63;98865.48;232708;213;145493;-65
2023/09/18 11:13:56;;;;;;;12.70;9.70;;;;;;;26.58;51.45;98859.39;232786;213;140301;-62
2023/09/18 11:19:08;;;;;;;9.20;8.20;;;;;;;26.59;50.76;98852.89;232739;214;137267;-64
2023/09/18 11:24:23;;;;;;;9.60;8.20;;;;;;;26.53;50.24;98851.10;232746;214;145850;-64
2023/09/18 11:29:31;;;;;;;9.10;7.80;;;;;;;26.49;50.33;98845.11;232655;214;139888;-64
2023/09/18 11:34:41;;;;;;;8.50;7.60;;;;;;;26.60;50.54;98837.44;232749;213;137144;-62
2023/09/18 11:39:46;;;;;;;10.20;8.10;;;;;;;26.58;50.57;98829.41;232749;213;146049;-63
2023/09/18 11:44:51;;;;;;;63.10;54.40;;;;;;;26.69;50.96;98826.68;232669;213;138864;-62
2023/09/18 11:49:58;;;;;;;11.20;8.40;;;;;;;26.80;51.04;98822.48;232688;213;138582;-62
2023/09/18 11:55:03;;;;;;;14.00;7.80;;;;;;;26.83;50.66;98820.17;232627;214;146514;-63
2023/09/18 12:00:22;;;;;;;10.90;7.70;;;;;;;26.87;50.39;98814.83;232681;214;140384;-62
2023/09/18 12:05:27;;;;;;;11.80;7.70;;;;;;;27.04;49.73;98817.26;232716;213;140619;-62
2023/09/18 12:10:33;;;;;;;10.00;7.30;;;;;;;27.19;48.88;98809.80;232880;213;146176;-61
2023/09/18 12:15:39;;;;;;;8.20;7.40;;;;;;;27.24;48.49;98806.73;232671;214;138668;-62
2023/09/18 12:20:47;;;;;;;10.80;7.90;;;;;;;27.29;48.49;98792.31;232717;214;138978;-61
2023/09/18 12:26:04;;;;;;;7.90;7.00;;;;;;;27.33;47.97;98785.71;232750;214;147275;-62
2023/09/18 12:31:15;;;;;;;8.00;7.10;;;;;;;27.45;46.69;98779.91;232632;214;139460;-64
2023/09/18 12:36:21;;;;;;;10.90;7.00;;;;;;;27.48;45.03;98763.59;232656;214;136985;-60
2023/09/18 12:41:26;;;;;;;7.90;7.10;;;;;;;27.59;44.57;98760.41;232740;214;145528;-61
2023/09/18 12:46:38;;;;;;;7.10;6.10;;;;;;;27.70;44.07;98760.51;232840;214;139258;-58
2023/09/18 12:51:42;;;;;;;8.70;6.30;;;;;;;27.69;42.55;98752.15;232683;214;141180;-59
2023/09/18 12:56:47;;;;;;;7.20;6.30;;;;;;;27.66;42.18;98744.02;232811;214;148404;-59
2023/09/18 15:05:29;;;;;;;6.90;5.60;;;;;;;26.84;42.20;98623.67;231939;220;697098;-64
2023/09/18 15:10:34;;;;;;;5.90;5.20;;;;;;;26.77;42.29;98618.10;232527;218;137140;-60
2023/09/18 15:15:40;;;;;;;7.40;5.20;;;;;;;26.70;42.59;98614.11;232559;218;143963;-64
2023/09/18 15:20:44;;;;;;;7.50;5.10;;;;;;;26.66;42.34;98611.67;232492;218;138845;-62
2023/09/18 15:25:53;;;;;;;5.60;5.10;;;;;;;26.57;42.03;98612.05;232878;216;137037;-63
2023/09/18 15:30:57;;;;;;;5.70;4.90;;;;;;;26.49;42.25;98608.99;232922;216;143651;-62
2023/09/18 15:36:02;;;;;;;10.90;5.70;;;;;;;26.42;42.59;98607.83;234433;215;139102;-62
2023/09/18 15:41:05;;;;;;;6.10;5.20;;;;;;;26.34;42.78;98597.31;234670;216;137175;-64
2023/09/18 15:46:09;;;;;;;7.60;5.40;;;;;;;26.30;42.87;98591.18;234499;216;144054;-59
2023/09/18 15:51:12;;;;;;;8.30;5.10;;;;;;;26.25;43.32;98585.98;234492;216;139320;-62
2023/09/18 15:56:15;;;;;;;7.70;5.70;;;;;;;26.22;43.71;98582.56;234359;216;136725;-62
2023/09/18 16:01:19;;;;;;;7.90;5.50;;;;;;;26.15;43.99;98577.65;234414;215;145894;-62
2023/09/18 16:10:27;;;;;;;10.70;5.70;;;;;;;26.04;44.16;98568.52;231474;224;724172;-59
2023/09/18 16:15:33;;;;;;;168.80;127.90;;;;;;;25.95;44.55;98565.46;232368;219;137002;-59
2023/09/18 16:20:37;;;;;;;13.20;8.60;;;;;;;25.90;45.15;98562.02;232722;217;144016;-62
2023/09/18 16:25:42;;;;;;;9.10;6.40;;;;;;;25.84;45.18;98558.02;232755;213;139593;-61
2023/09/18 16:30:46;;;;;;;10.80;5.60;;;;;;;25.74;46.08;98554.93;232662;214;137561;-61
2023/09/18 16:35:50;;;;;;;10.60;5.90;;;;;;;25.60;46.73;98562.41;232653;214;144001;-62
2023/09/18 16:40:54;;;;;;;9.10;5.70;;;;;;;25.48;47.45;98563.12;232828;214;141424;-57
2023/09/18 16:45:58;;;;;;;8.00;5.70;;;;;;;25.27;48.85;98567.54;232803;214;136835;-61
2023/09/18 16:51:04;;;;;;;12.50;6.30;;;;;;;25.05;49.34;98564.38;232797;214;145510;-63
2023/09/18 16:56:08;;;;;;;14.00;5.40;;;;;;;24.95;48.20;98559.44;232799;214;139531;-64
2023/09/18 17:01:13;;;;;;;12.60;6.40;;;;;;;24.92;47.77;98559.58;232807;214;136853;-62
2023/09/18 17:06:18;;;;;;;10.60;6.70;;;;;;;24.89;47.99;98562.54;232824;214;145515;-64
2023/09/18 17:11:22;;;;;;;9.60;6.10;;;;;;;24.82;48.53;98561.23;232887;215;138820;-59
2023/09/18 17:16:27;;;;;;;9.70;6.20;;;;;;;24.74;47.91;98560.17;232851;215;137412;-62
2023/09/18 17:21:34;;;;;;;10.10;5.90;;;;;;;24.70;48.24;98565.70;232935;215;145063;-61
2023/09/18 17:26:38;;;;;;;11.60;6.40;;;;;;;24.65;49.43;98567.92;232857;215;140585;-60
2023/09/18 17:31:43;;;;;;;9.30;5.90;;;;;;;24.55;50.19;98564.66;232798;215;138127;-59
2023/09/18 17:36:48;;;;;;;12.40;6.40;;;;;;;24.39;51.06;98563.96;232960;215;144561;-61
2023/09/18 17:41:54;;;;;;;11.30;6.70;;;;;;;24.23;52.09;98557.52;233048;215;139412;-61
2023/09/18 17:46:58;;;;;;;15.60;7.90;;;;;;;24.07;52.32;98564.55;233100;215;137528;-59
2023/09/18 17:52:06;;;;;;;12.70;6.70;;;;;;;23.92;52.53;98566.85;232947;208;146675;-63
2023/09/18 17:57:11;;;;;;;87.10;66.40;;;;;;;23.78;53.19;98571.51;232755;215;137816;-59
2023/09/18 18:02:15;;;;;;;162.10;129.40;;;;;;;23.78;52.85;98571.05;232917;215;137104;-61
2023/09/18 18:07:21;;;;;;;32.60;24.00;;;;;;;23.82;54.10;98566.41;232866;215;146287;-67
2023/09/18 18:12:26;;;;;;;20.60;15.00;;;;;;;23.84;54.79;98561.80;232891;215;138914;-63
2023/09/18 18:17:32;;;;;;;17.60;11.60;;;;;;;23.78;55.00;98560.02;232925;214;138140;-64
2023/09/18 18:22:36;;;;;;;14.60;11.30;;;;;;;23.68;55.42;98566.19;232851;214;147250;-61
2023/09/18 18:27:41;;;;;;;25.40;16.50;;;;;;;23.54;55.74;98562.99;232889;214;140837;-63
2023/09/18 18:32:44;;;;;;;111.10;87.00;;;;;;;23.39;55.86;98571.16;232890;214;137943;-62
2023/09/18 18:37:52;;;;;;;33.60;23.50;;;;;;;23.22;55.79;98575.52;232809;214;145743;-59
2023/09/18 18:42:57;;;;;;;19.20;11.90;;;;;;;23.07;56.28;98574.92;232851;213;138397;-59
2023/09/18 18:48:07;;;;;;;56.60;49.50;;;;;;;23.00;56.94;98577.69;232748;215;137263;-59
2023/09/18 18:53:12;;;;;;;27.10;19.10;;;;;;;22.87;56.75;98579.98;232911;215;146501;-61
2023/09/18 18:58:17;;;;;;;17.60;12.50;;;;;;;22.79;55.81;98578.64;232812;215;139872;-58
2023/09/18 19:03:21;;;;;;;15.70;11.80;;;;;;;22.80;54.78;98580.84;232826;215;137352;-59
2023/09/18 19:08:32;;;;;;;16.40;11.90;;;;;;;22.85;54.41;98581.37;232844;215;147341;-60
2023/09/18 19:13:42;;;;;;;18.20;11.90;;;;;;;22.86;54.45;98577.92;232861;215;140713;-61
2023/09/18 19:18:48;;;;;;;123.00;97.30;;;;;;;22.76;55.35;98573.39;232857;215;137763;-59
2023/09/18 19:23:57;;;;;;;19.20;13.70;;;;;;;22.62;55.89;98576.86;232915;215;147835;-60
2023/09/18 19:29:04;;;;;;;83.60;72.80;;;;;;;22.43;56.37;98578.09;232815;215;142015;-56
2023/09/18 19:34:14;;;;;;;24.90;18.10;;;;;;;22.29;56.74;98572.38;232881;215;137375;-60
2023/09/18 19:39:21;;;;;;;19.60;14.10;;;;;;;22.14;57.25;98566.00;232974;215;145777;-59
2023/09/18 19:44:26;;;;;;;20.90;12.90;;;;;;;22.00;57.73;98556.97;232827;215;140297;-60
2023/09/18 19:49:31;;;;;;;21.00;13.10;;;;;;;21.87;58.17;98554.78;232886;215;137805;-60
2023/09/18 19:54:36;;;;;;;21.30;13.70;;;;;;;21.74;58.94;98548.02;232772;215;145547;-59
2023/09/18 19:59:40;;;;;;;18.70;12.50;;;;;;;21.62;60.05;98539.12;232910;215;138791;-61
2023/09/18 20:04:45;;;;;;;21.10;12.80;;;;;;;21.53;60.48;98536.83;232896;215;137745;-60
2023/09/18 20:09:49;;;;;;;;;;;;;;;21.44;60.74;98538.88;232858;215;145954;-59
2023/09/18 20:14:54;;;;;;;22.00;13.20;;;;;;;21.35;60.91;98534.92;232878;215;140254;-58
2023/09/18 20:19:58;;;;;;;19.50;13.00;;;;;;;21.28;61.22;98531.30;232835;215;136981;-59
2023/09/18 20:25:08;;;;;;;19.70;13.00;;;;;;;21.20;61.56;98533.54;232878;215;147124;-59
2023/09/18 20:30:15;;;;;;;21.40;14.20;;;;;;;21.13;61.96;98531.08;232939;215;138814;-58
2023/09/18 20:35:19;;;;;;;24.10;14.90;;;;;;;21.07;62.36;98521.48;232742;215;137983;-63
2023/09/18 20:40:24;;;;;;;21.40;15.80;;;;;;;21.01;62.52;98520.15;232770;215;145818;-60
2023/09/18 20:45:31;;;;;;;23.00;15.20;;;;;;;20.95;63.04;98525.17;232803;215;140921;-60
2023/09/18 20:50:36;;;;;;;24.30;15.80;;;;;;;20.88;63.28;98519.85;232899;215;137250;-60
2023/09/18 20:55:43;;;;;;;25.80;14.00;;;;;;;20.81;63.66;98517.52;232853;215;146574;-59
2023/09/18 21:00:51;;;;;;;25.80;13.40;;;;;;;20.78;63.99;98516.21;232834;215;138967;-60
2023/09/18 21:05:55;;;;;;;21.80;14.40;;;;;;;20.79;64.25;98515.92;233000;215;137351;-61
2023/09/18 21:11:02;;;;;;;21.90;14.80;;;;;;;20.83;64.60;98512.66;232829;215;145745;-59
2023/09/18 21:16:07;;;;;;;23.30;15.90;;;;;;;20.86;64.50;98508.63;232711;215;153766;-60
2023/09/18 21:21:12;;;;;;;22.80;15.60;;;;;;;20.87;64.46;98508.73;232779;215;138006;-58
2023/09/18 21:26:20;;;;;;;24.50;16.00;;;;;;;20.78;64.30;98500.77;232793;215;145203;-61
2023/09/18 21:31:25;;;;;;;27.80;16.50;;;;;;;20.67;64.60;98493.41;232788;215;139027;-60
2023/09/18 21:36:31;;;;;;;26.00;16.00;;;;;;;20.64;64.79;98490.47;232759;215;138082;-58
2023/09/18 21:41:36;;;;;;;25.10;15.20;;;;;;;20.66;64.79;98488.30;232936;215;145509;-59
2023/09/18 21:46:42;;;;;;;28.10;15.40;;;;;;;20.68;64.80;98476.23;232781;215;138960;-60
2023/09/18 21:51:46;;;;;;;23.00;15.20;;;;;;;20.63;64.74;98475.52;232822;215;138035;-60
2023/09/18 21:56:51;;;;;;;26.20;14.90;;;;;;;20.59;64.92;98472.60;232844;215;147218;-59
2023/09/18 22:01:56;;;;;;;29.90;15.40;;;;;;;20.55;65.00;98473.19;232869;215;139746;-59
2023/09/18 22:07:01;;;;;;;25.20;15.00;;;;;;;20.53;65.15;98465.11;232828;215;137982;-58
2023/09/18 22:12:07;;;;;;;25.90;15.20;;;;;;;20.57;65.13;98463.52;232850;214;147601;-59
2023/09/18 22:17:11;;;;;;;25.20;15.20;;;;;;;20.60;65.10;98462.98;232812;215;139068;-59
2023/09/18 22:22:15;;;;;;;25.90;15.30;;;;;;;20.61;65.31;98458.88;232820;215;138364;-60
2023/09/18 22:27:20;;;;;;;;;;;;;;;20.57;65.18;98460.24;232786;215;145497;-57
2023/09/18 22:32:24;;;;;;;23.90;14.90;;;;;;;20.49;65.54;98456.21;232833;215;140819;-59
2023/09/18 22:37:30;;;;;;;24.60;14.30;;;;;;;20.41;65.84;98454.23;232804;215;137825;-61
2023/09/18 22:42:59;;;;;;;;;;;;;;;20.33;66.08;98453.56;232928;215;145815;-60
2023/09/18 22:48:42;;;;;;;18.80;12.20;;;;;;;20.24;66.35;98454.86;232883;215;139096;-59
2023/09/18 22:53:47;;;;;;;19.80;12.60;;;;;;;20.17;66.57;98452.23;233034;215;137261;-59
2023/09/18 22:58:55;;;;;;;15.40;11.50;;;;;;;20.12;66.99;98450.31;232748;215;147826;-58
2023/09/18 23:03:59;;;;;;;17.40;11.70;;;;;;;20.09;67.23;98444.27;232758;215;138700;-59
2023/09/18 23:09:05;;;;;;;14.30;10.90;;;;;;;20.12;67.13;98433.31;232846;214;138223;-59
2023/09/18 23:14:23;;;;;;;14.80;11.00;;;;;;;20.17;66.90;98423.23;232749;214;147920;-56
2023/09/18 23:19:26;;;;;;;14.20;11.40;;;;;;;20.20;66.56;98417.83;232711;214;140496;-59
2023/09/18 23:24:32;;;;;;;;;;;;;;;20.23;66.34;98421.46;232918;215;138197;-60
2023/09/18 23:29:37;;;;;;;15.20;11.30;;;;;;;20.20;66.28;98413.40;232861;215;147555;-60
2023/09/18 23:34:43;;;;;;;;;;;;;;;20.18;66.35;98407.25;232762;215;138793;-59
2023/09/18 23:39:48;;;;;;;18.50;11.70;;;;;;;20.15;66.44;98407.96;232868;214;133056;-58
2023/09/18 23:44:54;;;;;;;17.60;11.50;;;;;;;20.15;66.43;98395.34;232709;214;145640;-58
2023/09/18 23:50:00;;;;;;;15.40;10.90;;;;;;;20.17;66.41;98389.21;232728;215;138964;-62
2023/09/18 23:55:06;;;;;;;12.10;10.10;;;;;;;20.15;66.49;98393.61;232797;214;137901;-56
